createdAt,value
2023-03-27T00:02:23.766Z,9.14
2023-03-27T00:04:54.553Z,9.15
2023-03-27T00:07:22.708Z,9.18
2023-03-27T00:09:51.031Z,9.16
2023-03-27T00:12:18.357Z,9.13
2023-03-27T00:14:46.313Z,9.12
2023-03-27T00:17:14.037Z,9.13
2023-03-27T00:19:41.433Z,9.20
2023-03-27T00:22:09.440Z,9.07
2023-03-27T00:24:37.356Z,9.29
2023-03-27T00:27:05.171Z,9.51
2023-03-27T00:29:33.358Z,9.73
2023-03-27T00:32:01.018Z,9.79
2023-03-27T00:34:29.151Z,9.79
2023-03-27T00:36:56.590Z,9.46
2023-03-27T00:39:25.050Z,9.12
2023-03-27T00:41:55.405Z,9.17
2023-03-27T00:44:31.152Z,9.14
2023-03-27T00:46:59.045Z,8.96
2023-03-27T00:49:30.656Z,9.07
2023-03-27T00:51:59.190Z,9.01
2023-03-27T00:54:31.681Z,8.85
2023-03-27T00:57:05.301Z,8.83
2023-03-27T00:59:39.052Z,8.84
2023-03-27T01:02:08.281Z,8.86
2023-03-27T01:04:37.305Z,8.75
2023-03-27T01:07:08.557Z,8.70
2023-03-27T01:09:36.587Z,8.76
2023-03-27T01:12:11.123Z,8.93
2023-03-27T01:14:49.138Z,8.83
2023-03-27T01:17:19.378Z,8.66
2023-03-27T01:20:14.206Z,8.52
2023-03-27T01:22:59.783Z,8.55
2023-03-27T01:26:04.924Z,8.40
2023-03-27T01:28:57.307Z,8.27
2023-03-27T01:31:31.875Z,8.18
2023-03-27T01:34:14.443Z,8.05
2023-03-27T01:37:05.513Z,8.08
2023-03-27T01:39:46.004Z,8.15
2023-03-27T01:42:32.173Z,8.08
2023-03-27T01:45:33.232Z,8.14
2023-03-27T01:48:08.932Z,8.08
2023-03-27T01:50:44.498Z,8.08
2023-03-27T01:53:14.457Z,8.02
2023-03-27T01:55:50.438Z,8.09
2023-03-27T01:58:22.805Z,8.14
2023-03-27T02:00:55.414Z,8.00
2023-03-27T02:03:29.514Z,8.07
2023-03-27T02:06:15.072Z,8.13
2023-03-27T02:08:50.319Z,8.10
2023-03-27T02:11:23.514Z,8.09
2023-03-27T02:13:55.894Z,8.20
2023-03-27T02:16:28.879Z,8.18
2023-03-27T02:19:01.519Z,8.29
2023-03-27T02:21:31.366Z,8.28
2023-03-27T02:24:02.514Z,8.37
2023-03-27T02:26:31.074Z,8.37
2023-03-27T02:29:20.175Z,8.36
2023-03-27T02:31:51.172Z,8.35
2023-03-27T02:34:50.291Z,8.28
2023-03-27T02:37:36.266Z,8.22
2023-03-27T02:41:08.982Z,8.18
2023-03-27T02:43:54.621Z,8.24
2023-03-27T02:47:02.780Z,8.14
2023-03-27T02:49:38.752Z,8.20
2023-03-27T02:52:31.656Z,8.18
2023-03-27T02:55:06.715Z,8.14
2023-03-27T02:57:39.106Z,8.11
2023-03-27T03:00:39.583Z,8.06
2023-03-27T03:03:32.067Z,8.12
2023-03-27T03:06:11.148Z,8.01
2023-03-27T03:08:39.363Z,8.01
2023-03-27T03:11:12.405Z,8.02
2023-03-27T03:13:41.364Z,8.04
2023-03-27T03:16:09.984Z,7.96
2023-03-27T03:18:37.467Z,8.08
2023-03-27T03:21:05.856Z,8.05
2023-03-27T03:23:34.083Z,8.05
2023-03-27T03:26:03.860Z,8.09
2023-03-27T03:28:59.884Z,8.11
2023-03-27T03:31:43.491Z,8.11
2023-03-27T03:34:13.526Z,8.19
2023-03-27T03:36:44.990Z,8.27
2023-03-27T03:39:13.203Z,8.15
2023-03-27T03:41:42.743Z,8.15
2023-03-27T03:44:10.768Z,8.18
2023-03-27T03:46:40.930Z,8.16
2023-03-27T03:49:08.833Z,8.10
2023-03-27T03:51:37.652Z,8.02
2023-03-27T03:54:09.247Z,7.97
2023-03-27T03:56:37.439Z,8.02
2023-03-27T03:59:04.879Z,8.02
2023-03-27T04:01:33.677Z,8.02
2023-03-27T04:04:02.957Z,7.97
2023-03-27T04:06:49.062Z,7.95
2023-03-27T04:09:17.262Z,8.07
2023-03-27T04:12:07.617Z,7.96
2023-03-27T04:15:07.832Z,7.88
2023-03-27T04:18:01.466Z,7.84
2023-03-27T04:20:29.571Z,7.82
2023-03-27T04:23:02.229Z,7.89
2023-03-27T04:25:30.514Z,7.79
2023-03-27T04:28:02.196Z,7.83
2023-03-27T04:30:34.792Z,7.83
2023-03-27T04:33:23.138Z,7.73
2023-03-27T04:36:06.307Z,7.71
2023-03-27T04:38:55.740Z,7.77
2023-03-27T04:41:23.901Z,7.78
2023-03-27T04:43:52.366Z,7.80
2023-03-27T04:46:19.869Z,7.82
2023-03-27T04:48:53.411Z,7.84
2023-03-27T04:51:41.849Z,7.83
2023-03-27T04:54:11.878Z,7.80
2023-03-27T04:56:45.755Z,7.74
2023-03-27T04:59:13.588Z,7.75
2023-03-27T05:01:41.942Z,7.73
2023-03-27T05:04:32.726Z,7.85
2023-03-27T05:07:16.373Z,7.69
2023-03-27T05:09:44.326Z,7.66
2023-03-27T05:12:11.990Z,7.60
2023-03-27T05:14:50.152Z,7.63
2023-03-27T05:17:40.876Z,7.61
2023-03-27T05:20:14.436Z,7.69
2023-03-27T05:22:42.547Z,7.71
2023-03-27T05:25:26.493Z,7.74
2023-03-27T05:27:56.184Z,7.70
2023-03-27T05:30:28.582Z,7.74
2023-03-27T05:33:16.444Z,7.80
2023-03-27T05:35:47.879Z,7.77
2023-03-27T05:38:17.762Z,7.74
2023-03-27T05:41:06.197Z,7.81
2023-03-27T05:43:38.653Z,7.90
2023-03-27T05:46:07.778Z,8.01
2023-03-27T05:48:38.626Z,8.05
2023-03-27T05:51:06.824Z,8.07
2023-03-27T05:53:38.157Z,8.14
2023-03-27T05:56:24.696Z,8.25
2023-03-27T05:58:55.725Z,8.32
2023-03-27T06:01:25.866Z,8.34
2023-03-27T06:03:56.568Z,8.41
2023-03-27T06:06:48.448Z,8.57
2023-03-27T06:09:16.665Z,8.63
2023-03-27T06:11:54.374Z,8.83
2023-03-27T06:14:23.116Z,8.92
2023-03-27T06:17:08.833Z,8.99
2023-03-27T06:19:46.156Z,9.04
2023-03-27T06:22:14.167Z,9.02
2023-03-27T06:24:42.647Z,9.01
2023-03-27T06:27:15.135Z,9.06
2023-03-27T06:29:42.692Z,9.13
2023-03-27T06:32:10.112Z,9.24
2023-03-27T06:34:42.562Z,9.40
2023-03-27T06:37:28.590Z,9.51
2023-03-27T06:39:57.696Z,9.62
2023-03-27T06:42:26.149Z,9.68
2023-03-27T06:45:07.321Z,9.77
2023-03-27T06:48:20.594Z,9.87
2023-03-27T06:50:52.414Z,9.99
2023-03-27T06:55:54.016Z,10.05
2023-03-27T06:58:23.085Z,10.16
2023-03-27T07:00:51.317Z,10.32
2023-03-27T07:03:21.705Z,10.38
2023-03-27T07:06:04.645Z,10.44
2023-03-27T07:08:58.473Z,10.48
2023-03-27T07:11:26.160Z,10.54
2023-03-27T07:13:56.975Z,10.53
2023-03-27T07:16:31.277Z,10.65
2023-03-27T07:19:01.685Z,10.76
2023-03-27T07:21:31.147Z,10.80
2023-03-27T07:24:00.852Z,10.87
2023-03-27T07:26:34.734Z,10.93
2023-03-27T07:29:06.110Z,10.93
2023-03-27T07:31:54.671Z,10.95
2023-03-27T07:34:28.283Z,11.12
2023-03-27T07:37:14.583Z,11.13
2023-03-27T07:40:03.221Z,11.22
2023-03-27T07:42:31.162Z,11.41
2023-03-27T07:45:04.410Z,11.52
2023-03-27T07:47:32.826Z,11.64
2023-03-27T07:50:00.755Z,11.64
2023-03-27T07:52:29.506Z,11.71
2023-03-27T07:55:04.149Z,11.69
2023-03-27T07:58:00.483Z,11.66
2023-03-27T08:00:31.487Z,11.83
2023-03-27T08:03:11.745Z,11.98
2023-03-27T08:05:44.655Z,12.00
2023-03-27T08:08:16.150Z,12.20
2023-03-27T08:10:55.561Z,12.32
2023-03-27T08:13:25.645Z,12.25
2023-03-27T08:16:06.617Z,12.40
2023-03-27T08:18:34.327Z,12.42
2023-03-27T08:21:03.458Z,12.65
2023-03-27T08:23:33.873Z,12.77
2023-03-27T08:26:39.657Z,12.78
2023-03-27T08:29:10.142Z,13.05
2023-03-27T08:31:38.762Z,13.28
2023-03-27T08:34:06.787Z,13.26
2023-03-27T08:36:44.157Z,13.08
2023-03-27T08:39:13.082Z,13.09
2023-03-27T08:41:55.026Z,13.38
2023-03-27T08:44:35.818Z,13.33
2023-03-27T08:47:28.912Z,13.38
2023-03-27T08:50:18.503Z,13.69
2023-03-27T08:52:50.478Z,13.69
2023-03-27T08:55:41.555Z,13.69
2023-03-27T08:58:19.810Z,13.81
2023-03-27T09:01:05.050Z,13.81
2023-03-27T09:03:40.788Z,14.02
2023-03-27T09:06:34.167Z,14.04
2023-03-27T09:09:21.876Z,14.08
2023-03-27T09:12:25.860Z,14.15
2023-03-27T09:15:05.004Z,14.47
2023-03-27T09:17:38.881Z,14.59
2023-03-27T09:20:25.951Z,14.41
2023-03-27T09:23:10.974Z,14.49
2023-03-27T09:26:07.839Z,14.62
2023-03-27T09:29:21.209Z,15.10
2023-03-27T09:31:57.281Z,15.30
2023-03-27T09:34:29.038Z,15.54
2023-03-27T09:36:59.230Z,15.73
2023-03-27T09:39:37.835Z,15.83
2023-03-27T09:42:26.394Z,16.10
2023-03-27T09:44:57.461Z,16.07
2023-03-27T09:47:35.646Z,16.17
2023-03-27T09:50:28.402Z,16.30
2023-03-27T09:53:09.394Z,16.29
2023-03-27T09:55:53.155Z,16.25
2023-03-27T09:58:25.401Z,16.40
2023-03-27T10:01:20.319Z,16.47
2023-03-27T10:03:56.132Z,16.40
2023-03-27T10:06:44.757Z,16.63
2023-03-27T10:09:40.640Z,16.47
2023-03-27T10:12:21.083Z,16.42
2023-03-27T10:14:52.797Z,16.52
2023-03-27T10:17:38.581Z,16.56
2023-03-27T10:20:15.977Z,16.49
2023-03-27T10:23:08.530Z,16.53
2023-03-27T10:25:39.381Z,16.48
2023-03-27T10:28:36.519Z,16.66
2023-03-27T10:31:33.259Z,16.57
2023-03-27T10:34:33.558Z,16.61
2023-03-27T10:37:20.364Z,16.62
2023-03-27T10:39:55.119Z,16.74
2023-03-27T10:42:33.744Z,16.86
2023-03-27T10:45:01.340Z,16.90
2023-03-27T10:47:33.223Z,16.98
2023-03-27T10:50:19.250Z,16.97
2023-03-27T10:53:14.545Z,17.01
2023-03-27T10:56:02.075Z,17.34
2023-03-27T10:58:39.893Z,17.01
2023-03-27T11:01:18.470Z,16.99
2023-03-27T11:04:19.769Z,17.35
2023-03-27T11:07:00.147Z,17.31
2023-03-27T11:09:36.433Z,17.25
2023-03-27T11:12:16.293Z,17.45
2023-03-27T11:15:18.104Z,17.24
2023-03-27T11:18:12.289Z,17.39
2023-03-27T11:21:07.937Z,17.54
2023-03-27T11:23:58.578Z,17.28
2023-03-27T11:26:36.688Z,17.41
2023-03-27T11:29:14.493Z,17.47
2023-03-27T11:31:55.829Z,17.71
2023-03-27T11:34:53.648Z,17.61
2023-03-27T11:37:49.801Z,18.08
2023-03-27T11:40:28.358Z,17.86
2023-03-27T11:43:01.410Z,17.46
2023-03-27T11:45:45.239Z,17.89
2023-03-27T11:48:12.736Z,17.43
2023-03-27T11:50:58.463Z,17.87
2023-03-27T11:53:35.980Z,17.87
2023-03-27T11:56:35.767Z,17.90
2023-03-27T11:59:37.693Z,18.22
2023-03-27T12:02:31.693Z,18.29
2023-03-27T12:05:14.695Z,18.13
2023-03-27T12:08:12.993Z,18.03
2023-03-27T12:10:49.731Z,18.05
2023-03-27T12:13:58.127Z,18.03
2023-03-27T12:16:47.142Z,18.33
2023-03-27T12:20:19.028Z,18.17
2023-03-27T12:23:24.114Z,18.19
2023-03-27T12:26:41.763Z,18.26
2023-03-27T12:29:47.549Z,18.52
2023-03-27T12:32:25.390Z,18.32
2023-03-27T12:35:06.446Z,18.63
2023-03-27T12:37:45.586Z,18.66
2023-03-27T12:40:27.295Z,18.39
2023-03-27T12:43:18.318Z,18.81
2023-03-27T12:46:24.208Z,18.83
2023-03-27T12:49:10.724Z,18.60
2023-03-27T12:51:54.156Z,19.00
2023-03-27T12:55:04.479Z,18.73
2023-03-27T12:58:05.635Z,18.77
2023-03-27T13:01:00.694Z,18.93
2023-03-27T13:04:13.941Z,19.24
2023-03-27T13:06:53.203Z,19.43
2023-03-27T13:09:42.145Z,19.24
2023-03-27T13:12:34.654Z,18.96
2023-03-27T13:15:31.710Z,19.16
2023-03-27T13:18:28.106Z,19.12
2023-03-27T13:21:07.400Z,19.09
2023-03-27T13:23:51.529Z,19.48
2023-03-27T13:26:40.517Z,19.40
2023-03-27T13:29:19.265Z,19.37
2023-03-27T13:31:56.888Z,19.30
2023-03-27T13:34:27.680Z,19.37
2023-03-27T13:37:36.754Z,19.29
2023-03-27T13:40:23.314Z,19.41
2023-03-27T13:43:11.249Z,19.73
2023-03-27T13:45:47.023Z,19.62
2023-03-27T13:49:15.674Z,19.63
2023-03-27T13:52:37.461Z,19.60
2023-03-27T13:55:21.583Z,19.88
2023-03-27T13:58:32.801Z,19.95
2023-03-27T14:01:22.059Z,19.98
2023-03-27T14:04:27.516Z,19.97
2023-03-27T14:07:26.552Z,19.80
2023-03-27T14:10:31.392Z,20.06
2023-03-27T14:13:31.610Z,20.42
2023-03-27T14:16:08.768Z,23.30
2023-03-27T14:19:21.997Z,27.16
2023-03-27T14:22:16.085Z,28.86
2023-03-27T14:24:56.134Z,28.92
2023-03-27T14:27:53.990Z,29.13
2023-03-27T14:30:28.556Z,29.80
2023-03-27T14:33:20.216Z,32.62
2023-03-27T14:36:02.299Z,30.65
2023-03-27T14:38:33.683Z,28.02
2023-03-27T14:41:06.402Z,30.30
2023-03-27T14:43:49.451Z,29.16
2023-03-27T14:46:19.969Z,30.37
2023-03-27T14:48:51.798Z,30.10
2023-03-27T14:51:34.806Z,30.43
2023-03-27T14:54:08.598Z,29.02
2023-03-27T14:56:50.125Z,29.15
2023-03-27T14:59:35.924Z,29.33
2023-03-27T15:02:26.646Z,29.79
2023-03-27T15:05:04.225Z,29.83
2023-03-27T15:07:36.336Z,29.22
2023-03-27T15:10:28.375Z,28.12
2023-03-27T15:13:04.567Z,29.46
2023-03-27T15:15:55.913Z,29.40
2023-03-27T15:18:28.281Z,28.27
2023-03-27T15:21:00.597Z,28.94
2023-03-27T15:23:33.676Z,28.52
2023-03-27T15:26:24.320Z,28.86
2023-03-27T15:29:01.702Z,27.35
2023-03-27T15:31:31.165Z,28.39
2023-03-27T15:34:03.441Z,30.24
2023-03-27T15:36:35.144Z,28.53
2023-03-27T15:39:04.693Z,28.21
2023-03-27T15:41:36.728Z,28.36
2023-03-27T15:44:09.241Z,27.67
2023-03-27T15:46:51.310Z,28.85
2023-03-27T15:49:28.721Z,28.21
2023-03-27T15:51:57.463Z,27.91
2023-03-27T15:54:35.505Z,29.36
2023-03-27T15:57:11.565Z,27.56
2023-03-27T15:59:52.596Z,28.27
2023-03-27T16:02:23.744Z,27.89
2023-03-27T16:04:58.802Z,27.83
2023-03-27T16:07:42.485Z,28.47
2023-03-27T16:10:12.359Z,27.58
2023-03-27T16:12:39.671Z,27.61
2023-03-27T16:15:27.661Z,27.87
2023-03-27T16:18:02.366Z,26.80
2023-03-27T16:20:34.612Z,27.66
2023-03-27T16:23:04.237Z,26.34
2023-03-27T16:25:32.379Z,25.82
2023-03-27T16:27:59.903Z,25.37
2023-03-27T16:30:32.392Z,26.08
2023-03-27T16:33:00.173Z,25.00
2023-03-27T16:35:32.527Z,22.88
2023-03-27T16:38:01.404Z,22.06
2023-03-27T16:40:29.154Z,24.43
2023-03-27T16:42:56.713Z,24.73
2023-03-27T16:45:25.686Z,24.25
2023-03-27T16:47:53.847Z,22.27
2023-03-27T16:50:25.119Z,21.50
2023-03-27T16:52:53.336Z,21.98
2023-03-27T16:55:21.638Z,20.18
2023-03-27T16:57:49.670Z,19.56
2023-03-27T17:00:20.138Z,20.41
2023-03-27T17:02:48.387Z,19.36
2023-03-27T17:05:16.239Z,19.56
2023-03-27T17:07:46.540Z,18.19
2023-03-27T17:10:14.805Z,19.06
2023-03-27T17:12:42.488Z,19.96
2023-03-27T17:15:10.753Z,17.76
2023-03-27T17:17:38.670Z,16.83
2023-03-27T17:20:07.909Z,16.19
2023-03-27T17:22:36.142Z,16.08
2023-03-27T17:25:05.959Z,15.68
2023-03-27T17:27:33.646Z,15.58
2023-03-27T17:30:01.231Z,15.39
2023-03-27T17:32:29.068Z,15.36
2023-03-27T17:34:56.693Z,15.20
2023-03-27T17:37:25.944Z,14.94
2023-03-27T17:39:54.750Z,14.77
2023-03-27T17:42:22.431Z,14.70
2023-03-27T17:44:49.953Z,14.63
2023-03-27T17:47:18.352Z,14.44
2023-03-27T17:49:45.865Z,14.34
2023-03-27T17:52:14.267Z,14.26
2023-03-27T17:54:42.262Z,14.25
2023-03-27T17:57:09.729Z,14.08
2023-03-27T17:59:38.654Z,14.09
2023-03-27T18:02:07.558Z,13.92
2023-03-27T18:04:36.484Z,13.92
2023-03-27T18:07:04.340Z,13.88
2023-03-27T18:09:34.510Z,13.83
2023-03-27T18:12:01.977Z,13.80
2023-03-27T18:14:29.595Z,13.67
2023-03-27T18:16:57.126Z,13.73
2023-03-27T18:19:25.232Z,13.67
2023-03-27T18:21:53.072Z,13.45
2023-03-27T18:24:21.256Z,13.45
2023-03-27T18:26:48.890Z,13.33
2023-03-27T18:29:16.631Z,13.32
2023-03-27T18:31:44.991Z,13.31
2023-03-27T18:34:12.550Z,13.24
2023-03-27T18:36:40.594Z,13.24
2023-03-27T18:39:08.631Z,13.13
2023-03-27T18:41:36.142Z,13.03
2023-03-27T18:44:03.579Z,13.06
2023-03-27T18:46:31.537Z,12.89
2023-03-27T18:49:03.308Z,12.81
2023-03-27T18:51:35.190Z,12.77
2023-03-27T18:54:02.578Z,12.70
2023-03-27T18:56:29.889Z,12.51
2023-03-27T18:58:57.281Z,12.56
2023-03-27T19:01:24.825Z,12.48
2023-03-27T19:03:52.213Z,12.47
2023-03-27T19:06:20.233Z,12.50
2023-03-27T19:08:48.026Z,12.51
2023-03-27T19:11:16.266Z,12.43
2023-03-27T19:14:02.579Z,12.37
2023-03-27T19:16:33.352Z,12.35
2023-03-27T19:19:37.013Z,12.26
2023-03-27T19:22:20.554Z,12.27
2023-03-27T19:24:54.517Z,12.14
2023-03-27T19:27:23.450Z,12.13
2023-03-27T19:29:54.820Z,12.13
2023-03-27T19:32:24.281Z,11.99
2023-03-27T19:34:51.765Z,12.01
2023-03-27T19:37:19.533Z,12.09
2023-03-27T19:39:47.232Z,12.00
2023-03-27T19:42:14.642Z,11.99
2023-03-27T19:44:42.637Z,11.95
2023-03-27T19:47:10.077Z,11.86
2023-03-27T19:49:37.885Z,11.81
2023-03-27T19:52:18.636Z,11.69
2023-03-27T19:54:47.085Z,11.63
2023-03-27T19:57:15.065Z,11.58
2023-03-27T19:59:42.509Z,11.52
2023-03-27T20:02:12.795Z,11.40
2023-03-27T20:04:40.503Z,11.36
2023-03-27T20:07:08.223Z,11.30
2023-03-27T20:09:36.476Z,11.26
2023-03-27T20:12:06.439Z,11.06
2023-03-27T20:14:33.892Z,10.96
2023-03-27T20:17:01.272Z,10.92
2023-03-27T20:19:30.479Z,10.79
2023-03-27T20:22:00.195Z,10.65
2023-03-27T20:24:28.907Z,10.61
2023-03-27T20:26:59.647Z,10.49
2023-03-27T20:29:27.603Z,10.38
2023-03-27T20:31:55.733Z,10.41
2023-03-27T20:34:24.260Z,10.35
2023-03-27T20:36:54.969Z,10.33
2023-03-27T20:39:34.842Z,10.18
2023-03-27T20:42:02.183Z,10.20
2023-03-27T20:44:35.419Z,10.17
2023-03-27T20:47:10.912Z,10.12
2023-03-27T20:49:45.291Z,9.89
2023-03-27T20:52:16.302Z,9.96
2023-03-27T20:54:44.527Z,9.74
2023-03-27T20:57:13.482Z,9.60
2023-03-27T20:59:40.865Z,9.73
2023-03-27T21:02:16.936Z,9.56
2023-03-27T21:04:46.736Z,9.70
2023-03-27T21:07:15.798Z,9.61
2023-03-27T21:09:45.672Z,9.61
2023-03-27T21:12:13.649Z,9.48
2023-03-27T21:14:41.225Z,9.63
2023-03-27T21:17:12.226Z,9.46
2023-03-27T21:19:39.646Z,9.60
2023-03-27T21:22:06.999Z,9.58
2023-03-27T21:24:34.825Z,9.48
2023-03-27T21:27:03.433Z,9.45
2023-03-27T21:29:31.142Z,9.60
2023-03-27T21:31:59.036Z,9.63
2023-03-27T21:34:27.335Z,9.74
2023-03-27T21:36:54.908Z,9.82
2023-03-27T21:39:22.352Z,9.63
2023-03-27T21:41:49.728Z,9.57
2023-03-27T21:44:17.383Z,9.54
2023-03-27T21:46:45.222Z,9.64
2023-03-27T21:49:12.591Z,9.55
2023-03-27T21:51:39.978Z,9.40
2023-03-27T21:54:08.068Z,9.50
2023-03-27T21:56:35.665Z,9.48
2023-03-27T21:59:03.990Z,9.47
2023-03-27T22:01:31.750Z,9.49
2023-03-27T22:04:02.320Z,9.47
2023-03-27T22:06:30.066Z,9.50
2023-03-27T22:08:58.134Z,9.39
2023-03-27T22:11:26.001Z,9.36
2023-03-27T22:13:53.902Z,9.27
2023-03-27T22:16:21.605Z,9.28
2023-03-27T22:18:49.828Z,9.20
2023-03-27T22:21:29.121Z,9.14
2023-03-27T22:23:58.551Z,9.01
2023-03-27T22:26:30.404Z,8.98
2023-03-27T22:28:59.802Z,8.80
2023-03-27T22:31:27.404Z,8.80
2023-03-27T22:33:55.786Z,8.82
2023-03-27T22:36:23.362Z,8.57
2023-03-27T22:38:51.077Z,8.38
2023-03-27T22:41:18.984Z,8.05
2023-03-27T22:43:49.423Z,8.05
2023-03-27T22:46:20.749Z,8.05
2023-03-27T22:48:56.868Z,8.10
2023-03-27T22:51:25.983Z,8.12
